createdAt,value
2023-05-14T00:00:45.490Z,5.43
2023-05-14T00:03:07.845Z,6.20
2023-05-14T00:05:30.289Z,6.00
2023-05-14T00:07:52.622Z,6.30
2023-05-14T00:10:14.850Z,6.20
2023-05-14T00:12:37.031Z,5.67
2023-05-14T00:14:59.248Z,5.70
2023-05-14T00:17:21.500Z,6.33
2023-05-14T00:19:43.848Z,5.80
2023-05-14T00:22:06.188Z,6.07
2023-05-14T00:24:28.555Z,5.80
2023-05-14T00:26:50.764Z,5.33
2023-05-14T00:29:12.984Z,5.70
2023-05-14T00:31:35.293Z,5.10
2023-05-14T00:33:58.604Z,5.70
2023-05-14T00:36:20.862Z,5.70
2023-05-14T00:38:43.226Z,5.53
2023-05-14T00:41:05.590Z,5.37
2023-05-14T00:43:27.882Z,5.53
2023-05-14T00:45:53.975Z,5.23
2023-05-14T00:48:16.246Z,6.30
2023-05-14T00:50:39.002Z,5.67
2023-05-14T00:53:01.547Z,5.07
2023-05-14T00:55:24.110Z,5.67
2023-05-14T00:57:46.444Z,5.60
2023-05-14T01:00:09.000Z,6.27
2023-05-14T01:02:31.351Z,6.63
2023-05-14T01:04:54.197Z,6.40
2023-05-14T01:07:31.361Z,5.70
2023-05-14T01:10:01.903Z,5.50
2023-05-14T01:12:30.911Z,5.67
2023-05-14T01:14:56.225Z,5.53
2023-05-14T01:17:20.114Z,4.90
2023-05-14T01:19:45.752Z,4.50
2023-05-14T01:22:08.042Z,5.50
2023-05-14T01:24:30.415Z,5.30
2023-05-14T01:26:52.986Z,5.77
2023-05-14T01:29:22.167Z,5.67
2023-05-14T01:31:46.593Z,5.83
2023-05-14T01:34:09.640Z,5.73
2023-05-14T01:36:33.030Z,4.90
2023-05-14T01:38:56.179Z,5.30
2023-05-14T01:41:19.667Z,5.00
2023-05-14T01:43:42.485Z,5.37
2023-05-14T01:46:04.908Z,4.90
2023-05-14T01:48:27.271Z,5.33
2023-05-14T01:50:49.493Z,5.23
2023-05-14T01:53:11.866Z,5.67
2023-05-14T01:55:34.333Z,5.80
2023-05-14T01:57:56.592Z,6.13
2023-05-14T02:00:19.181Z,5.73
2023-05-14T02:02:41.366Z,5.70
2023-05-14T02:05:07.223Z,5.37
2023-05-14T02:07:29.464Z,5.90
2023-05-14T02:09:51.713Z,5.47
2023-05-14T02:12:13.970Z,5.30
2023-05-14T02:14:36.218Z,5.47
2023-05-14T02:16:58.578Z,5.40
2023-05-14T02:19:20.805Z,4.87
2023-05-14T02:21:43.947Z,5.33
2023-05-14T02:24:06.298Z,4.77
2023-05-14T02:26:28.484Z,5.20
2023-05-14T02:28:51.326Z,4.27
2023-05-14T02:31:14.547Z,4.87
2023-05-14T02:33:37.469Z,4.33
2023-05-14T02:36:00.051Z,4.50
2023-05-14T02:38:22.401Z,5.60
2023-05-14T02:40:44.698Z,6.00
2023-05-14T02:43:07.014Z,6.03
2023-05-14T02:45:29.344Z,5.37
2023-05-14T02:47:51.608Z,4.90
2023-05-14T02:50:14.152Z,5.47
2023-05-14T02:52:36.358Z,4.83
2023-05-14T02:54:58.609Z,4.80
2023-05-14T02:57:21.307Z,4.27
2023-05-14T02:59:43.526Z,3.80
2023-05-14T03:02:06.314Z,4.50
2023-05-14T03:04:29.058Z,4.10
2023-05-14T03:06:51.277Z,5.30
2023-05-14T03:09:14.311Z,4.83
2023-05-14T03:11:36.618Z,5.10
2023-05-14T03:13:58.875Z,4.80
2023-05-14T03:16:21.222Z,5.07
2023-05-14T03:18:43.490Z,5.70
2023-05-14T03:21:05.820Z,4.83
2023-05-14T03:23:28.160Z,5.63
2023-05-14T03:25:50.927Z,5.70
2023-05-14T03:28:13.197Z,5.10
2023-05-14T03:30:35.552Z,4.83
2023-05-14T03:32:59.103Z,4.70
2023-05-14T03:35:21.618Z,4.73
2023-05-14T03:37:44.087Z,5.27
2023-05-14T03:40:06.784Z,4.77
2023-05-14T03:42:31.719Z,4.90
2023-05-14T03:44:54.062Z,4.87
2023-05-14T03:47:16.328Z,5.43
2023-05-14T03:49:38.634Z,5.20
2023-05-14T03:52:02.350Z,5.30
2023-05-14T03:54:24.660Z,5.73
2023-05-14T03:56:46.957Z,5.90
2023-05-14T03:59:09.154Z,5.63
2023-05-14T04:01:31.452Z,5.80
2023-05-14T04:03:53.848Z,6.47
2023-05-14T04:06:16.469Z,7.43
2023-05-14T04:08:38.718Z,7.03
2023-05-14T04:11:01.436Z,6.10
2023-05-14T04:13:23.742Z,6.37
2023-05-14T04:15:46.069Z,6.50
2023-05-14T04:18:09.152Z,6.67
2023-05-14T04:20:31.510Z,6.13
2023-05-14T04:22:54.511Z,6.03
2023-05-14T04:25:18.424Z,5.53
2023-05-14T04:27:40.872Z,5.93
2023-05-14T04:30:03.378Z,6.10
2023-05-14T04:32:25.846Z,6.40
2023-05-14T04:34:48.152Z,6.73
2023-05-14T04:37:10.463Z,6.03
2023-05-14T04:39:32.665Z,4.90
2023-05-14T04:41:54.865Z,4.70
2023-05-14T04:44:17.430Z,4.70
2023-05-14T04:46:39.664Z,4.20
2023-05-14T04:49:02.047Z,4.60
2023-05-14T04:51:24.401Z,3.77
2023-05-14T04:53:46.703Z,4.03
2023-05-14T04:56:09.029Z,4.27
2023-05-14T04:58:34.550Z,3.97
2023-05-14T05:00:57.694Z,4.37
2023-05-14T05:03:20.455Z,3.40
2023-05-14T05:05:43.253Z,3.40
2023-05-14T05:08:05.743Z,3.10
2023-05-14T05:10:28.110Z,2.90
2023-05-14T05:12:50.604Z,2.83
2023-05-14T05:18:14.763Z,2.47
2023-05-14T05:20:38.181Z,2.40
2023-05-14T05:23:00.748Z,2.33
2023-05-14T05:25:23.063Z,2.42
2023-05-14T05:27:45.393Z,1.95
2023-05-14T05:30:08.526Z,2.08
2023-05-14T05:32:31.024Z,2.20
2023-05-14T05:34:53.374Z,1.77
2023-05-14T05:37:16.127Z,1.80
2023-05-14T05:39:38.521Z,1.77
2023-05-14T05:42:02.194Z,1.70
2023-05-14T05:44:24.962Z,2.10
2023-05-14T05:46:47.264Z,2.00
2023-05-14T05:49:09.702Z,1.77
2023-05-14T05:51:33.140Z,1.70
2023-05-14T05:53:55.874Z,1.83
2023-05-14T05:56:18.107Z,2.30
2023-05-14T05:58:40.431Z,2.00
2023-05-14T06:01:02.741Z,2.33
2023-05-14T06:03:25.115Z,2.45
2023-05-14T06:05:47.393Z,2.20
2023-05-14T06:08:09.909Z,1.92
2023-05-14T06:10:32.179Z,2.03
2023-05-14T06:12:54.594Z,1.70
2023-05-14T06:15:16.831Z,2.15
2023-05-14T06:17:39.700Z,1.63
2023-05-14T06:20:02.138Z,2.08
2023-05-14T06:22:24.446Z,1.95
2023-05-14T06:24:46.721Z,2.63
2023-05-14T06:27:09.160Z,2.13
2023-05-14T06:29:31.526Z,2.35
2023-05-14T06:31:54.089Z,2.40
2023-05-14T06:34:16.416Z,2.50
2023-05-14T06:36:38.645Z,2.28
2023-05-14T06:39:00.876Z,2.67
2023-05-14T06:41:23.291Z,2.75
2023-05-14T06:43:45.637Z,3.10
2023-05-14T06:46:07.895Z,2.90
2023-05-14T06:48:30.806Z,3.42
2023-05-14T06:50:53.052Z,3.78
2023-05-14T06:53:15.472Z,3.35
2023-05-14T06:55:37.762Z,3.33
2023-05-14T06:57:59.990Z,3.47
2023-05-14T07:00:22.753Z,3.40
2023-05-14T07:02:45.264Z,3.42
2023-05-14T07:05:08.738Z,3.33
2023-05-14T07:07:30.943Z,3.75
2023-05-14T07:09:53.230Z,3.42
2023-05-14T07:12:15.696Z,3.40
2023-05-14T07:14:38.160Z,3.95
2023-05-14T07:17:00.838Z,4.00
2023-05-14T07:19:23.116Z,3.63
2023-05-14T07:21:45.474Z,4.15
2023-05-14T07:24:07.978Z,4.47
2023-05-14T07:26:30.500Z,4.25
2023-05-14T07:28:52.905Z,4.05
2023-05-14T07:31:15.247Z,4.07
2023-05-14T07:33:37.592Z,4.45
2023-05-14T07:35:59.781Z,4.60
2023-05-14T07:38:22.168Z,4.90
2023-05-14T07:40:44.474Z,4.00
2023-05-14T07:43:06.680Z,4.50
2023-05-14T07:45:28.904Z,4.97
2023-05-14T07:47:52.057Z,4.65
2023-05-14T07:50:15.386Z,4.75
2023-05-14T07:52:37.598Z,4.95
2023-05-14T07:55:01.660Z,4.93
2023-05-14T07:57:23.922Z,4.22
2023-05-14T07:59:46.450Z,4.57
2023-05-14T08:02:10.922Z,4.10
2023-05-14T08:04:33.425Z,4.45
2023-05-14T08:06:58.096Z,4.35
2023-05-14T08:09:20.297Z,4.57
2023-05-14T08:11:42.709Z,4.70
2023-05-14T08:14:08.100Z,4.82
2023-05-14T08:16:30.503Z,4.30
2023-05-14T08:18:53.227Z,4.50
2023-05-14T08:21:18.332Z,3.80
2023-05-14T08:23:40.757Z,3.92
2023-05-14T08:26:03.404Z,3.72
2023-05-14T08:28:25.640Z,3.80
2023-05-14T08:30:47.902Z,4.10
2023-05-14T08:33:10.391Z,4.03
2023-05-14T08:35:32.869Z,4.10
2023-05-14T08:37:56.914Z,4.13
2023-05-14T08:40:19.902Z,3.50
2023-05-14T08:42:43.164Z,2.90
2023-05-14T08:45:06.768Z,3.47
2023-05-14T08:47:32.561Z,3.40
2023-05-14T08:50:04.662Z,3.78
2023-05-14T08:52:27.155Z,2.97
2023-05-14T08:54:51.416Z,3.13
2023-05-14T08:57:14.067Z,3.70
2023-05-14T08:59:36.344Z,3.00
2023-05-14T09:02:01.378Z,3.25
2023-05-14T09:04:25.581Z,3.63
2023-05-14T09:06:50.090Z,3.35
2023-05-14T09:09:13.051Z,3.10
2023-05-14T09:11:35.284Z,2.72
2023-05-14T09:13:57.566Z,3.15
2023-05-14T09:16:20.893Z,2.67
2023-05-14T09:18:46.351Z,2.75
2023-05-14T09:21:09.379Z,2.30
2023-05-14T09:23:34.715Z,2.92
2023-05-14T09:25:57.037Z,2.67
2023-05-14T09:28:21.587Z,2.92
2023-05-14T09:30:47.715Z,2.97
2023-05-14T09:33:10.447Z,2.67
2023-05-14T09:38:47.037Z,3.10
2023-05-14T09:47:54.780Z,2.72
2023-05-14T09:50:17.342Z,2.55
2023-05-14T09:52:39.934Z,2.05
2023-05-14T09:55:09.038Z,2.50
2023-05-14T09:58:03.014Z,1.95
2023-05-14T10:00:51.696Z,1.83
2023-05-14T10:03:18.002Z,2.08
2023-05-14T10:05:42.687Z,2.35
2023-05-14T10:08:11.399Z,1.95
2023-05-14T10:10:37.085Z,2.00
2023-05-14T10:13:04.186Z,2.00
2023-05-14T10:15:31.014Z,1.75
2023-05-14T10:18:01.216Z,1.92
2023-05-14T10:20:26.643Z,1.90
2023-05-14T10:22:48.963Z,2.50
2023-05-14T10:25:12.032Z,1.90
2023-05-14T10:27:34.539Z,2.30
2023-05-14T10:29:57.258Z,1.83
2023-05-14T10:32:21.005Z,1.90
2023-05-14T10:34:44.563Z,2.25
2023-05-14T10:37:26.597Z,2.42
2023-05-14T10:39:51.338Z,2.42
2023-05-14T10:42:21.234Z,2.53
2023-05-14T10:44:58.882Z,2.45
2023-05-14T10:47:21.326Z,1.88
2023-05-14T10:49:44.157Z,2.33
2023-05-14T10:52:09.316Z,2.53
2023-05-14T10:54:35.730Z,2.13
2023-05-14T10:56:59.746Z,2.20
2023-05-14T10:59:26.026Z,2.15
2023-05-14T11:01:48.887Z,2.47
2023-05-14T11:04:50.465Z,2.05
2023-05-14T11:07:13.375Z,1.90
2023-05-14T11:09:35.824Z,1.88
2023-05-14T11:11:58.342Z,2.00
2023-05-14T11:14:20.952Z,2.20
2023-05-14T11:16:43.280Z,2.38
2023-05-14T11:19:05.719Z,1.92
2023-05-14T11:21:28.148Z,2.28
2023-05-14T11:23:51.128Z,1.83
2023-05-14T11:26:13.763Z,1.88
2023-05-14T11:28:36.443Z,1.90
2023-05-14T11:30:59.178Z,1.88
2023-05-14T11:33:21.897Z,2.17
2023-05-14T11:35:45.609Z,2.17
2023-05-14T11:38:09.236Z,1.95
2023-05-14T11:40:31.823Z,1.77
2023-05-14T11:42:54.211Z,2.03
2023-05-14T11:45:28.239Z,1.75
2023-05-14T11:47:50.579Z,1.85
2023-05-14T11:50:13.058Z,2.30
2023-05-14T11:52:40.396Z,2.10
2023-05-14T11:55:03.401Z,1.75
2023-05-14T11:57:26.452Z,1.80
2023-05-14T11:59:49.773Z,1.90
2023-05-14T12:02:13.268Z,2.05
2023-05-14T12:04:35.540Z,1.58
2023-05-14T12:06:59.026Z,2.05
2023-05-14T12:09:22.067Z,1.67
2023-05-14T12:11:46.376Z,1.92
2023-05-14T12:14:26.944Z,1.83
2023-05-14T12:16:49.638Z,2.10
2023-05-14T12:19:12.627Z,2.13
2023-05-14T12:21:35.572Z,2.17
2023-05-14T12:24:02.287Z,2.17
2023-05-14T12:26:27.685Z,1.80
2023-05-14T12:29:03.134Z,1.95
2023-05-14T12:31:33.085Z,1.70
2023-05-14T12:33:55.646Z,1.90
2023-05-14T12:36:21.652Z,1.83
2023-05-14T12:38:44.746Z,1.83
2023-05-14T12:41:07.030Z,1.80
2023-05-14T12:43:31.512Z,1.90
2023-05-14T12:45:54.466Z,1.73
2023-05-14T12:48:16.945Z,2.03
2023-05-14T12:50:39.693Z,1.52
2023-05-14T12:53:01.980Z,1.77
2023-05-14T12:55:24.531Z,1.25
2023-05-14T12:57:47.105Z,1.80
2023-05-14T13:00:14.220Z,2.10
2023-05-14T13:02:43.171Z,1.83
2023-05-14T13:05:06.497Z,2.15
2023-05-14T13:07:34.102Z,2.10
2023-05-14T13:09:56.855Z,2.00
2023-05-14T13:12:19.089Z,1.90
2023-05-14T13:14:41.392Z,1.65
2023-05-14T13:17:05.300Z,1.90
2023-05-14T13:19:27.701Z,1.77
2023-05-14T13:21:49.901Z,1.80
2023-05-14T13:24:18.110Z,1.90
2023-05-14T13:26:40.841Z,1.50
2023-05-14T13:29:03.540Z,1.77
2023-05-14T13:31:26.126Z,1.88
2023-05-14T13:33:48.760Z,1.92
2023-05-14T13:36:12.328Z,1.65
2023-05-14T13:38:34.896Z,1.70
2023-05-14T13:41:02.660Z,1.88
2023-05-14T13:43:25.186Z,1.70
2023-05-14T13:45:47.545Z,1.50
2023-05-14T13:48:13.208Z,1.85
2023-05-14T13:50:35.499Z,1.73
2023-05-14T13:52:57.872Z,1.70
2023-05-14T13:55:25.326Z,1.50
2023-05-14T13:57:47.733Z,1.40
2023-05-14T14:00:11.120Z,1.73
2023-05-14T14:02:34.260Z,1.88
2023-05-14T14:04:58.479Z,2.03
2023-05-14T14:07:21.360Z,1.83
2023-05-14T14:09:47.028Z,1.85
2023-05-14T14:12:09.529Z,1.80
2023-05-14T14:14:31.941Z,1.92
2023-05-14T14:16:54.542Z,1.60
2023-05-14T14:19:18.388Z,1.70
2023-05-14T14:21:43.173Z,1.80
2023-05-14T14:24:08.472Z,1.60
2023-05-14T14:26:32.343Z,1.95
2023-05-14T14:28:57.739Z,1.83
2023-05-14T14:31:20.979Z,1.63
2023-05-14T14:33:46.333Z,1.67
2023-05-14T14:36:09.160Z,1.67
2023-05-14T14:38:33.222Z,1.73
2023-05-14T14:40:56.691Z,1.80
2023-05-14T14:43:19.048Z,1.80
2023-05-14T14:45:48.183Z,1.70
2023-05-14T14:48:25.119Z,1.85
2023-05-14T14:50:47.479Z,1.63
2023-05-14T14:53:10.147Z,1.60
2023-05-14T14:55:32.702Z,1.90
2023-05-14T14:58:19.876Z,1.50
2023-05-14T15:00:42.341Z,1.58
2023-05-14T15:03:04.865Z,1.88
2023-05-14T15:05:27.385Z,1.90
2023-05-14T15:07:49.580Z,1.40
2023-05-14T15:10:12.013Z,1.58
2023-05-14T15:12:34.470Z,1.75
2023-05-14T15:14:56.745Z,1.27
2023-05-14T15:17:19.115Z,1.60
2023-05-14T15:19:41.351Z,1.48
2023-05-14T15:22:03.706Z,1.58
2023-05-14T15:24:26.397Z,1.70
2023-05-14T15:26:48.671Z,1.60
2023-05-14T15:29:10.956Z,1.75
2023-05-14T15:31:33.326Z,1.58
2023-05-14T15:33:56.041Z,1.60
2023-05-14T15:36:18.319Z,1.70
2023-05-14T15:38:40.713Z,1.70
2023-05-14T15:41:03.022Z,1.73
2023-05-14T15:43:25.573Z,1.45
2023-05-14T15:45:47.846Z,1.75
2023-05-14T15:48:10.210Z,1.77
2023-05-14T15:50:32.450Z,1.50
2023-05-14T15:52:54.754Z,1.50
2023-05-14T15:55:17.042Z,1.13
2023-05-14T15:57:39.314Z,1.50
2023-05-14T16:00:01.948Z,1.70
2023-05-14T16:02:30.252Z,1.23
2023-05-14T16:04:52.800Z,1.40
2023-05-14T16:07:15.033Z,1.20
2023-05-14T16:09:37.642Z,1.48
2023-05-14T16:11:59.992Z,1.30
2023-05-14T16:14:22.798Z,1.52
2023-05-14T16:16:45.243Z,1.50
2023-05-14T16:19:07.548Z,1.50
2023-05-14T16:21:30.593Z,1.80
2023-05-14T16:23:53.035Z,1.77
2023-05-14T16:26:15.335Z,1.92
2023-05-14T16:28:41.313Z,1.88
2023-05-14T16:31:03.978Z,1.80
2023-05-14T16:33:26.350Z,1.52
2023-05-14T16:35:49.951Z,1.95
2023-05-14T16:38:12.524Z,1.70
2023-05-14T16:40:34.798Z,1.75
2023-05-14T16:42:57.188Z,1.63
2023-05-14T16:48:21.157Z,2.05
2023-05-14T16:50:43.747Z,2.10
2023-05-14T16:56:36.960Z,2.28
2023-05-14T16:58:59.405Z,1.95
2023-05-14T17:01:21.929Z,2.38
2023-05-14T17:03:51.357Z,2.30
2023-05-14T17:06:14.137Z,2.20
2023-05-14T17:08:39.289Z,2.40
2023-05-14T17:11:07.691Z,2.10
2023-05-14T17:13:33.085Z,2.25
2023-05-14T17:16:18.573Z,2.58
2023-05-14T17:18:42.228Z,2.47
2023-05-14T17:24:35.250Z,2.55
2023-05-14T17:26:58.291Z,3.00
2023-05-14T17:29:58.192Z,2.90
2023-05-14T17:32:21.387Z,2.95
2023-05-14T17:34:45.754Z,3.08
2023-05-14T17:37:30.136Z,3.10
2023-05-14T17:39:58.865Z,3.10
2023-05-14T17:46:30.391Z,3.30
2023-05-14T17:48:29.197Z,3.55
2023-05-14T17:51:06.339Z,3.53
2023-05-14T17:56:50.908Z,3.25
2023-05-14T18:06:28.040Z,3.78
2023-05-14T18:08:59.104Z,3.80
2023-05-14T18:11:49.618Z,3.38
2023-05-14T18:14:13.164Z,3.97
2023-05-14T18:16:36.213Z,3.75
2023-05-14T18:19:03.184Z,3.72
2023-05-14T18:21:32.599Z,3.72
2023-05-14T18:23:55.122Z,3.83
2023-05-14T18:29:02.621Z,3.38
2023-05-14T18:35:48.359Z,3.78
2023-05-14T18:38:13.746Z,3.38
2023-05-14T18:40:36.327Z,4.03
2023-05-14T18:43:01.161Z,3.30
2023-05-14T18:45:24.379Z,3.90
2023-05-14T18:49:10.284Z,3.85
2023-05-14T18:51:38.937Z,3.63
2023-05-14T18:54:01.621Z,3.53
2023-05-14T18:56:25.616Z,4.10
2023-05-14T19:03:07.775Z,3.95
2023-05-14T19:05:51.844Z,4.20
2023-05-14T19:08:14.570Z,4.00
2023-05-14T19:11:07.566Z,4.30
2023-05-14T19:13:30.419Z,4.22
2023-05-14T19:23:33.038Z,4.40
2023-05-14T19:26:32.926Z,3.97
2023-05-14T19:29:02.220Z,3.80
2023-05-14T19:35:22.860Z,4.00
2023-05-14T19:37:57.825Z,3.80
2023-05-14T19:40:56.410Z,4.35
2023-05-14T19:43:31.137Z,4.30
2023-05-14T19:46:03.044Z,4.38
2023-05-14T19:51:31.096Z,4.47
2023-05-14T19:53:53.711Z,4.70
2023-05-14T19:56:16.512Z,5.57
2023-05-14T19:58:41.198Z,5.67
2023-05-14T20:01:04.355Z,5.47
2023-05-14T20:03:27.241Z,5.53
2023-05-14T20:05:50.069Z,5.30
2023-05-14T20:08:12.958Z,4.67
2023-05-14T20:10:35.438Z,5.83
2023-05-14T20:13:21.014Z,5.37
2023-05-14T20:16:07.181Z,5.63
2023-05-14T20:18:55.790Z,5.80
2023-05-14T20:21:18.226Z,5.77
2023-05-14T20:23:40.574Z,5.80
2023-05-14T20:26:04.121Z,5.90
2023-05-14T20:28:26.558Z,5.80
2023-05-14T20:30:55.229Z,6.00
2023-05-14T20:35:54.026Z,7.07
2023-05-14T20:38:18.249Z,6.47
2023-05-14T20:40:40.743Z,7.10
2023-05-14T20:43:02.997Z,7.20
2023-05-14T20:45:25.625Z,8.23
2023-05-14T20:47:48.093Z,7.83
2023-05-14T20:50:10.659Z,7.50
2023-05-14T20:52:33.028Z,8.60
2023-05-14T20:54:55.500Z,7.83
2023-05-14T20:57:17.810Z,8.23
2023-05-14T20:59:40.121Z,7.90
2023-05-14T21:02:02.499Z,7.87
2023-05-14T21:04:25.082Z,7.47
2023-05-14T21:06:47.652Z,7.80
2023-05-14T21:09:10.854Z,8.40
2023-05-14T21:11:33.463Z,9.37
2023-05-14T21:13:55.683Z,10.60
2023-05-14T21:16:19.201Z,9.73
2023-05-14T21:18:41.555Z,11.33
2023-05-14T21:21:04.124Z,10.70
2023-05-14T21:23:26.400Z,9.10
2023-05-14T21:25:48.734Z,8.43
2023-05-14T21:28:11.039Z,8.10
2023-05-14T21:30:33.298Z,9.27
2023-05-14T21:32:55.767Z,8.60
2023-05-14T21:35:24.395Z,9.40
2023-05-14T21:37:47.052Z,10.00
2023-05-14T21:40:12.081Z,9.67
2023-05-14T21:42:34.655Z,9.40
2023-05-14T21:44:56.886Z,9.13
2023-05-14T21:47:19.888Z,10.30
2023-05-14T21:49:42.217Z,10.27
2023-05-14T21:52:05.137Z,10.93
2023-05-14T21:54:27.358Z,10.10
2023-05-14T21:56:50.137Z,10.47
2023-05-14T21:59:12.580Z,10.63
2023-05-14T22:01:42.187Z,13.80
2023-05-14T22:04:16.896Z,12.33
2023-05-14T22:06:39.221Z,12.77
2023-05-14T22:09:01.525Z,12.27
2023-05-14T22:11:23.833Z,12.90
2023-05-14T22:13:46.131Z,12.47
2023-05-14T22:16:13.816Z,13.13
2023-05-14T22:18:36.688Z,14.37
2023-05-14T22:20:58.989Z,15.13
2023-05-14T22:23:21.257Z,13.90
2023-05-14T22:25:43.824Z,14.17
2023-05-14T22:28:06.123Z,14.03
2023-05-14T22:30:28.516Z,15.13
2023-05-14T22:32:50.794Z,14.03
2023-05-14T22:35:13.412Z,15.37
2023-05-14T22:37:35.728Z,15.37
2023-05-14T22:39:58.160Z,14.73
2023-05-14T22:42:20.921Z,14.80
2023-05-14T22:44:43.144Z,13.77
2023-05-14T22:47:05.566Z,15.40
2023-05-14T22:49:27.832Z,14.03
2023-05-14T22:51:54.174Z,15.60
2023-05-14T22:54:17.571Z,16.20
2023-05-14T22:56:39.969Z,15.80
2023-05-14T22:59:02.210Z,16.10
2023-05-14T23:01:24.556Z,16.33
2023-05-14T23:03:46.954Z,15.97
2023-05-14T23:06:09.281Z,16.23
2023-05-14T23:08:31.662Z,15.20
2023-05-14T23:10:54.002Z,16.20
2023-05-14T23:13:16.252Z,16.27
2023-05-14T23:15:39.113Z,15.83
2023-05-14T23:18:01.471Z,17.53
2023-05-14T23:20:23.814Z,17.10
2023-05-14T23:22:46.094Z,17.77
2023-05-14T23:25:08.558Z,17.80
2023-05-14T23:27:30.828Z,17.63
2023-05-14T23:29:53.465Z,18.67
2023-05-14T23:32:15.666Z,15.90
2023-05-14T23:34:37.993Z,18.13
2023-05-14T23:37:00.463Z,18.97
2023-05-14T23:39:22.761Z,17.57
2023-05-14T23:41:45.067Z,19.77
2023-05-14T23:44:07.343Z,17.53
2023-05-14T23:46:29.831Z,16.07
2023-05-14T23:48:52.251Z,16.80
2023-05-14T23:51:14.693Z,17.00
2023-05-14T23:53:37.393Z,17.37
2023-05-14T23:55:59.673Z,15.93
2023-05-14T23:58:22.075Z,15.77
